createdAt,value
2023-05-22T00:02:04.670Z,41.70
2023-05-22T00:04:33.191Z,41.80
2023-05-22T00:07:01.474Z,41.80
2023-05-22T00:09:29.464Z,41.80
2023-05-22T00:11:58.815Z,41.90
2023-05-22T00:14:26.767Z,42.00
2023-05-22T00:16:55.479Z,42.00
2023-05-22T00:19:23.769Z,42.10
2023-05-22T00:21:52.468Z,42.10
2023-05-22T00:24:20.897Z,42.10
2023-05-22T00:26:49.060Z,42.20
2023-05-22T00:29:18.392Z,42.20
2023-05-22T00:31:46.435Z,42.30
2023-05-22T00:34:14.463Z,42.30
2023-05-22T00:36:42.476Z,42.30
2023-05-22T00:39:11.520Z,42.30
2023-05-22T00:41:39.561Z,42.30
2023-05-22T00:44:08.089Z,42.30
2023-05-22T00:46:38.139Z,42.40
2023-05-22T00:49:06.416Z,42.50
2023-05-22T00:51:34.600Z,42.50
2023-05-22T00:54:02.942Z,42.50
2023-05-22T00:56:30.957Z,42.60
2023-05-22T00:59:00.185Z,42.60
2023-05-22T01:01:33.466Z,42.70
2023-05-22T01:04:05.008Z,42.60
2023-05-22T01:06:33.878Z,42.80
2023-05-22T01:09:01.906Z,42.80
2023-05-22T01:11:37.117Z,42.80
2023-05-22T01:14:12.528Z,43.00
2023-05-22T01:16:48.954Z,42.90
2023-05-22T01:19:53.862Z,43.10
2023-05-22T01:22:40.856Z,43.40
2023-05-22T01:25:33.626Z,43.40
2023-05-22T01:28:20.376Z,43.40
2023-05-22T01:30:55.468Z,43.30
2023-05-22T01:33:26.479Z,43.20
2023-05-22T01:35:58.578Z,43.10
2023-05-22T01:38:27.183Z,43.20
2023-05-22T01:40:55.955Z,43.30
2023-05-22T01:43:23.934Z,43.30
2023-05-22T01:45:53.449Z,43.30
2023-05-22T01:48:21.442Z,43.40
2023-05-22T01:50:54.863Z,43.40
2023-05-22T01:53:31.267Z,43.70
2023-05-22T01:56:06.282Z,44.30
2023-05-22T01:58:40.648Z,43.70
2023-05-22T02:01:11.404Z,43.70
2023-05-22T02:03:41.681Z,43.80
2023-05-22T02:06:14.094Z,43.80
2023-05-22T02:08:43.264Z,43.90
2023-05-22T02:11:13.677Z,43.80
2023-05-22T02:13:42.812Z,44.00
2023-05-22T02:16:12.633Z,44.00
2023-05-22T02:18:41.715Z,44.20
2023-05-22T02:21:09.862Z,44.10
2023-05-22T02:23:38.315Z,44.20
2023-05-22T02:26:06.857Z,44.20
2023-05-22T02:28:34.924Z,44.30
2023-05-22T02:31:03.826Z,44.30
2023-05-22T02:33:33.318Z,44.30
2023-05-22T02:36:01.496Z,44.40
2023-05-22T02:38:29.489Z,44.40
2023-05-22T02:40:57.533Z,44.50
2023-05-22T02:43:25.532Z,44.50
2023-05-22T02:45:53.767Z,44.50
2023-05-22T02:48:21.823Z,44.60
2023-05-22T02:50:51.271Z,44.60
2023-05-22T02:53:19.312Z,44.70
2023-05-22T02:55:48.361Z,44.70
2023-05-22T02:58:17.868Z,44.80
2023-05-22T03:00:46.193Z,44.80
2023-05-22T03:03:14.299Z,44.80
2023-05-22T03:05:43.325Z,44.90
2023-05-22T03:08:12.878Z,44.90
2023-05-22T03:10:43.086Z,45.00
2023-05-22T03:13:11.103Z,45.10
2023-05-22T03:15:39.105Z,45.10
2023-05-22T03:18:13.656Z,45.10
2023-05-22T03:20:42.346Z,45.10
2023-05-22T03:23:13.875Z,45.10
2023-05-22T03:25:42.419Z,45.30
2023-05-22T03:28:10.832Z,45.30
2023-05-22T03:30:41.512Z,45.30
2023-05-22T03:33:15.231Z,45.40
2023-05-22T03:35:44.586Z,45.50
2023-05-22T03:38:14.320Z,45.60
2023-05-22T03:40:42.461Z,45.60
2023-05-22T03:43:11.333Z,45.70
2023-05-22T03:45:40.389Z,45.70
2023-05-22T03:48:10.531Z,45.70
2023-05-22T03:50:38.825Z,45.80
2023-05-22T03:53:07.424Z,45.80
2023-05-22T03:55:36.750Z,45.80
2023-05-22T03:58:04.815Z,46.00
2023-05-22T04:00:33.228Z,46.00
2023-05-22T04:03:01.476Z,46.00
2023-05-22T04:05:30.361Z,46.10
2023-05-22T04:07:58.719Z,46.20
2023-05-22T04:10:26.756Z,46.30
2023-05-22T04:12:56.137Z,46.40
2023-05-22T04:15:24.169Z,46.40
2023-05-22T04:17:53.599Z,46.40
2023-05-22T04:20:23.020Z,46.60
2023-05-22T04:22:52.070Z,46.60
2023-05-22T04:25:20.044Z,46.70
2023-05-22T04:27:48.936Z,46.80
2023-05-22T04:30:18.513Z,46.90
2023-05-22T04:32:46.747Z,47.00
2023-05-22T04:35:18.664Z,47.60
2023-05-22T04:37:46.785Z,47.10
2023-05-22T04:40:15.340Z,47.00
2023-05-22T04:42:44.484Z,47.20
2023-05-22T04:45:14.531Z,47.30
2023-05-22T04:47:43.889Z,47.40
2023-05-22T04:50:14.343Z,47.40
2023-05-22T04:52:42.855Z,47.40
2023-05-22T04:55:12.080Z,47.40
2023-05-22T04:57:40.856Z,47.50
2023-05-22T05:00:10.858Z,47.60
2023-05-22T05:02:39.751Z,47.60
2023-05-22T05:05:10.287Z,47.70
2023-05-22T05:07:39.947Z,47.90
2023-05-22T05:10:09.705Z,47.90
2023-05-22T05:12:38.399Z,47.90
2023-05-22T05:15:08.528Z,48.00
2023-05-22T05:17:36.594Z,48.10
2023-05-22T05:20:07.066Z,48.10
2023-05-22T05:22:37.341Z,48.20
2023-05-22T05:25:10.131Z,48.40
2023-05-22T05:27:40.421Z,48.40
2023-05-22T05:30:10.734Z,48.40
2023-05-22T05:32:49.141Z,48.60
2023-05-22T05:35:26.159Z,48.60
2023-05-22T05:38:12.740Z,48.70
2023-05-22T05:40:43.800Z,48.90
2023-05-22T05:43:15.049Z,48.80
2023-05-22T05:45:43.657Z,48.90
2023-05-22T05:48:12.773Z,49.00
2023-05-22T05:50:44.359Z,49.20
2023-05-22T05:53:14.090Z,49.20
2023-05-22T05:55:46.958Z,49.40
2023-05-22T05:58:15.710Z,49.40
2023-05-22T06:01:00.920Z,49.50
2023-05-22T06:03:29.812Z,49.50
2023-05-22T06:06:29.762Z,49.60
2023-05-22T06:09:17.501Z,49.60
2023-05-22T06:12:04.684Z,49.70
2023-05-22T06:14:33.405Z,49.60
2023-05-22T06:17:01.653Z,49.70
2023-05-22T06:19:29.818Z,49.70
2023-05-22T06:21:57.929Z,49.70
2023-05-22T06:24:27.484Z,49.70
2023-05-22T06:26:55.745Z,49.80
2023-05-22T06:29:23.756Z,49.70
2023-05-22T06:31:54.377Z,49.60
2023-05-22T06:34:23.356Z,49.60
2023-05-22T06:36:52.363Z,49.50
2023-05-22T06:39:24.465Z,49.50
2023-05-22T06:42:08.501Z,49.40
2023-05-22T06:45:07.208Z,49.50
2023-05-22T06:47:44.812Z,49.40
2023-05-22T06:50:12.945Z,49.30
2023-05-22T06:52:40.989Z,49.30
2023-05-22T06:55:11.769Z,49.30
2023-05-22T06:57:54.064Z,49.30
2023-05-22T07:00:22.543Z,49.20
2023-05-22T07:03:04.792Z,49.10
2023-05-22T07:05:39.850Z,49.00
2023-05-22T07:08:09.335Z,49.00
2023-05-22T07:10:37.638Z,49.00
2023-05-22T07:13:07.301Z,49.00
2023-05-22T07:15:35.979Z,48.90
2023-05-22T07:18:06.381Z,48.80
2023-05-22T07:20:34.621Z,48.80
2023-05-22T07:23:12.047Z,48.90
2023-05-22T07:25:40.364Z,48.80
2023-05-22T07:28:11.611Z,48.80
2023-05-22T07:30:50.303Z,48.80
2023-05-22T07:33:18.355Z,48.70
2023-05-22T07:35:46.581Z,48.80
2023-05-22T07:38:14.942Z,48.80
2023-05-22T07:40:50.187Z,48.80
2023-05-22T07:43:20.152Z,48.70
2023-05-22T07:45:48.474Z,48.40
2023-05-22T07:48:18.934Z,48.20
2023-05-22T07:50:47.698Z,48.10
2023-05-22T07:53:17.214Z,48.10
2023-05-22T07:55:46.886Z,47.90
2023-05-22T07:58:15.602Z,47.70
2023-05-22T08:00:46.799Z,47.20
2023-05-22T08:03:15.184Z,47.00
2023-05-22T08:05:43.348Z,47.00
2023-05-22T08:08:11.939Z,46.60
2023-05-22T08:13:12.357Z,46.20
2023-05-22T08:15:40.439Z,45.80
2023-05-22T08:18:09.984Z,45.40
2023-05-22T08:20:39.073Z,45.10
2023-05-22T08:23:07.341Z,44.90
2023-05-22T08:25:35.426Z,45.00
2023-05-22T08:28:03.535Z,45.00
2023-05-22T08:30:31.605Z,44.80
2023-05-22T08:32:59.694Z,44.80
2023-05-22T08:35:29.115Z,44.70
2023-05-22T08:37:57.195Z,44.70
2023-05-22T08:40:33.704Z,44.30
2023-05-22T08:43:01.899Z,43.90
2023-05-22T08:45:34.117Z,43.80
2023-05-22T08:48:06.611Z,43.90
2023-05-22T08:50:41.175Z,43.40
2023-05-22T08:53:13.064Z,43.40
2023-05-22T08:55:41.416Z,43.40
2023-05-22T08:58:11.472Z,43.40
2023-05-22T09:00:39.768Z,43.20
2023-05-22T09:03:13.812Z,43.00
2023-05-22T09:05:43.448Z,43.00
2023-05-22T09:08:19.952Z,42.70
2023-05-22T09:10:49.352Z,42.50
2023-05-22T09:13:27.503Z,41.90
2023-05-22T09:16:00.713Z,41.80
2023-05-22T09:18:30.126Z,41.60
2023-05-22T09:21:00.584Z,42.40
2023-05-22T09:23:29.597Z,41.10
2023-05-22T09:25:59.489Z,41.00
2023-05-22T09:28:29.029Z,41.10
2023-05-22T09:30:57.157Z,41.00
2023-05-22T09:33:25.619Z,40.90
2023-05-22T09:35:54.819Z,41.00
2023-05-22T09:38:28.428Z,40.70
2023-05-22T09:40:57.738Z,41.00
2023-05-22T09:43:26.390Z,40.60
2023-05-22T09:45:58.907Z,40.20
2023-05-22T09:48:27.388Z,39.70
2023-05-22T09:50:56.667Z,39.70
2023-05-22T09:53:29.099Z,40.10
2023-05-22T09:55:58.670Z,40.00
2023-05-22T09:58:29.357Z,39.80
2023-05-22T10:00:58.431Z,39.60
2023-05-22T10:03:28.447Z,39.60
2023-05-22T10:05:57.489Z,39.40
2023-05-22T10:08:29.799Z,39.30
2023-05-22T10:10:58.689Z,39.60
2023-05-22T10:13:27.574Z,39.40
2023-05-22T10:15:56.171Z,39.40
2023-05-22T10:18:25.857Z,39.00
2023-05-22T10:20:55.174Z,39.00
2023-05-22T10:23:23.614Z,38.60
2023-05-22T10:25:54.213Z,38.70
2023-05-22T10:28:30.959Z,38.70
2023-05-22T10:31:04.459Z,39.00
2023-05-22T10:34:05.259Z,39.00
2023-05-22T10:36:46.598Z,38.50
2023-05-22T10:39:37.464Z,38.10
2023-05-22T10:42:07.021Z,38.00
2023-05-22T10:44:35.166Z,37.90
2023-05-22T10:47:11.438Z,37.80
2023-05-22T10:49:43.814Z,37.70
2023-05-22T10:52:14.520Z,37.70
2023-05-22T10:54:44.765Z,37.30
2023-05-22T10:57:17.317Z,37.10
2023-05-22T10:59:48.486Z,37.20
2023-05-22T11:02:22.168Z,37.20
2023-05-22T11:04:50.877Z,36.80
2023-05-22T11:07:19.050Z,36.90
2023-05-22T11:09:48.755Z,36.70
2023-05-22T11:12:28.464Z,36.50
2023-05-22T11:14:59.327Z,35.00
2023-05-22T11:17:29.493Z,36.40
2023-05-22T11:20:04.950Z,36.40
2023-05-22T11:22:38.332Z,36.30
2023-05-22T11:25:10.885Z,36.00
2023-05-22T11:27:42.368Z,35.90
2023-05-22T11:30:12.594Z,36.00
2023-05-22T11:32:44.924Z,36.10
2023-05-22T11:35:15.598Z,35.70
2023-05-22T11:37:43.760Z,35.50
2023-05-22T11:40:16.892Z,35.60
2023-05-22T11:42:46.581Z,35.20
2023-05-22T11:45:15.201Z,35.50
2023-05-22T11:47:44.505Z,35.40
2023-05-22T11:50:15.047Z,35.60
2023-05-22T11:52:46.618Z,35.70
2023-05-22T11:55:14.773Z,35.60
2023-05-22T11:57:43.270Z,35.50
2023-05-22T12:00:14.236Z,35.60
2023-05-22T12:02:47.043Z,35.60
2023-05-22T12:05:16.590Z,35.40
2023-05-22T12:07:45.102Z,35.70
2023-05-22T12:10:15.802Z,35.40
2023-05-22T12:12:44.877Z,35.10
2023-05-22T12:15:15.082Z,35.30
2023-05-22T12:17:44.430Z,34.90
2023-05-22T12:20:14.625Z,35.10
2023-05-22T12:22:43.980Z,34.60
2023-05-22T12:25:17.200Z,34.60
2023-05-22T12:27:46.067Z,33.90
2023-05-22T12:30:16.993Z,34.10
2023-05-22T12:32:49.566Z,33.90
2023-05-22T12:35:18.331Z,33.50
2023-05-22T12:37:50.412Z,33.90
2023-05-22T12:40:19.183Z,33.80
2023-05-22T12:42:48.212Z,34.00
2023-05-22T12:45:18.704Z,33.90
2023-05-22T12:47:47.203Z,33.50
2023-05-22T12:50:15.583Z,33.40
2023-05-22T12:52:43.703Z,33.40
2023-05-22T12:55:12.667Z,33.20
2023-05-22T12:57:40.786Z,33.30
2023-05-22T13:00:10.152Z,33.30
2023-05-22T13:02:39.716Z,33.30
2023-05-22T13:05:08.763Z,33.30
2023-05-22T13:07:37.639Z,33.30
2023-05-22T13:10:07.111Z,33.30
2023-05-22T13:12:35.195Z,33.30
2023-05-22T13:15:03.352Z,33.30
2023-05-22T13:17:31.630Z,33.40
2023-05-22T13:20:01.147Z,33.40
2023-05-22T13:22:29.308Z,33.30
2023-05-22T13:24:57.357Z,33.40
2023-05-22T13:27:25.641Z,33.20
2023-05-22T13:29:53.758Z,33.10
2023-05-22T13:32:21.983Z,32.80
2023-05-22T13:34:50.092Z,33.00
2023-05-22T13:37:19.657Z,32.90
2023-05-22T13:39:47.778Z,32.70
2023-05-22T13:42:15.900Z,32.70
2023-05-22T13:44:44.006Z,32.80
2023-05-22T13:47:12.183Z,32.90
2023-05-22T13:49:40.340Z,33.00
2023-05-22T13:52:08.676Z,33.10
2023-05-22T13:54:38.113Z,33.20
2023-05-22T13:57:06.991Z,33.10
2023-05-22T13:59:35.047Z,32.90
2023-05-22T14:02:03.178Z,32.70
2023-05-22T14:04:31.403Z,32.60
2023-05-22T14:06:59.476Z,32.70
2023-05-22T14:09:27.661Z,32.80
2023-05-22T14:11:57.763Z,32.80
2023-05-22T14:14:26.199Z,32.80
2023-05-22T14:16:54.914Z,32.80
2023-05-22T14:19:23.092Z,32.80
2023-05-22T14:21:52.321Z,32.70
2023-05-22T14:24:21.197Z,32.60
2023-05-22T14:26:49.252Z,32.50
2023-05-22T14:29:18.803Z,32.10
2023-05-22T14:31:51.246Z,31.80
2023-05-22T14:34:20.272Z,31.60
2023-05-22T14:36:48.554Z,31.80
2023-05-22T14:39:16.738Z,32.00
2023-05-22T14:41:44.785Z,32.20
2023-05-22T14:44:12.833Z,32.30
2023-05-22T14:46:42.240Z,32.50
2023-05-22T14:49:10.407Z,32.50
2023-05-22T14:51:38.460Z,32.50
2023-05-22T14:54:06.902Z,32.30
2023-05-22T14:56:35.115Z,32.30
2023-05-22T14:59:03.170Z,33.10
2023-05-22T15:01:31.400Z,32.30
2023-05-22T15:04:00.770Z,32.40
2023-05-22T15:06:29.110Z,32.50
2023-05-22T15:08:57.166Z,32.40
2023-05-22T15:11:26.126Z,32.30
2023-05-22T15:13:55.144Z,32.40
2023-05-22T15:16:23.359Z,32.20
2023-05-22T15:18:51.768Z,32.10
2023-05-22T15:21:21.607Z,32.10
2023-05-22T15:23:49.691Z,31.90
2023-05-22T15:26:17.980Z,32.00
2023-05-22T15:28:46.077Z,31.90
2023-05-22T15:31:14.815Z,31.70
2023-05-22T15:33:42.959Z,31.80
2023-05-22T15:36:11.146Z,31.60
2023-05-22T15:38:40.527Z,31.90
2023-05-22T15:41:08.521Z,31.60
2023-05-22T15:43:36.591Z,31.70
2023-05-22T15:46:04.679Z,31.60
2023-05-22T15:48:33.250Z,31.70
2023-05-22T15:51:01.343Z,31.80
2023-05-22T15:53:29.419Z,31.90
2023-05-22T15:55:58.878Z,32.00
2023-05-22T15:58:28.499Z,31.80
2023-05-22T16:00:56.821Z,32.00
2023-05-22T16:03:25.347Z,32.10
2023-05-22T16:05:53.851Z,32.30
2023-05-22T16:08:21.938Z,32.30
2023-05-22T16:10:50.020Z,32.20
2023-05-22T16:13:19.679Z,32.30
2023-05-22T16:15:47.698Z,32.30
2023-05-22T16:18:15.841Z,32.50
2023-05-22T16:20:43.949Z,32.50
2023-05-22T16:23:11.967Z,32.50
2023-05-22T16:25:40.234Z,32.50
2023-05-22T16:28:08.420Z,32.70
2023-05-22T16:30:39.928Z,32.50
2023-05-22T16:33:08.754Z,32.50
2023-05-22T16:35:36.877Z,32.50
2023-05-22T16:38:06.938Z,32.60
2023-05-22T16:40:34.952Z,32.50
2023-05-22T16:43:04.432Z,32.50
2023-05-22T16:45:32.510Z,32.60
2023-05-22T16:48:02.021Z,32.70
2023-05-22T16:50:30.040Z,32.40
2023-05-22T16:52:58.101Z,32.50
2023-05-22T16:55:26.210Z,32.60
2023-05-22T16:57:54.426Z,32.40
2023-05-22T17:00:23.114Z,32.40
2023-05-22T17:02:56.156Z,32.50
2023-05-22T17:08:50.293Z,32.50
2023-05-22T17:20:45.748Z,32.70
2023-05-22T17:23:15.008Z,32.60
2023-05-22T17:26:07.392Z,32.70
2023-05-22T17:28:38.025Z,33.00
2023-05-22T17:31:07.598Z,32.60
2023-05-22T17:33:36.080Z,33.80
2023-05-22T17:36:04.765Z,33.10
2023-05-22T17:38:33.367Z,33.10
2023-05-22T17:41:02.779Z,33.00
2023-05-22T17:43:35.520Z,32.80
2023-05-22T17:46:06.255Z,33.00
2023-05-22T17:48:34.743Z,33.00
2023-05-22T17:51:03.690Z,33.20
2023-05-22T17:53:34.286Z,33.20
2023-05-22T17:56:03.344Z,33.20
2023-05-22T17:58:31.581Z,33.10
2023-05-22T18:00:59.670Z,33.10
2023-05-22T18:03:30.066Z,33.20
2023-05-22T18:09:37.256Z,33.40
2023-05-22T18:12:10.935Z,32.90
2023-05-22T18:21:01.571Z,33.40
2023-05-22T18:23:59.035Z,33.00
2023-05-22T18:26:27.970Z,33.40
2023-05-22T18:28:56.542Z,33.30
2023-05-22T18:31:25.155Z,33.40
2023-05-22T18:33:53.536Z,33.40
2023-05-22T18:36:23.004Z,33.50
2023-05-22T18:38:51.026Z,33.60
2023-05-22T18:41:19.205Z,33.60
2023-05-22T18:43:47.289Z,33.50
2023-05-22T18:46:15.463Z,33.50
2023-05-22T18:48:43.769Z,33.70
2023-05-22T18:51:13.364Z,33.40
2023-05-22T18:53:44.001Z,33.60
2023-05-22T18:56:13.346Z,33.60
2023-05-22T18:58:42.871Z,34.40
2023-05-22T19:01:11.523Z,34.10
2023-05-22T19:03:41.795Z,34.00
2023-05-22T19:06:10.536Z,34.20
2023-05-22T19:08:38.806Z,33.90
2023-05-22T19:11:08.448Z,34.20
2023-05-22T19:13:36.681Z,34.60
2023-05-22T19:16:05.060Z,34.40
2023-05-22T19:18:33.198Z,34.60
2023-05-22T19:21:01.237Z,34.60
2023-05-22T19:23:29.556Z,34.80
2023-05-22T19:25:58.440Z,35.00
2023-05-22T19:28:28.019Z,35.00
2023-05-22T19:30:58.626Z,35.10
2023-05-22T19:33:27.546Z,35.10
2023-05-22T19:35:55.583Z,35.10
2023-05-22T19:38:24.134Z,35.40
2023-05-22T19:40:52.165Z,35.30
2023-05-22T19:43:20.405Z,35.40
2023-05-22T19:45:49.904Z,35.40
2023-05-22T19:48:18.065Z,35.60
2023-05-22T19:50:46.405Z,35.50
2023-05-22T19:53:14.808Z,35.60
2023-05-22T19:55:42.951Z,35.70
2023-05-22T19:58:11.084Z,35.80
2023-05-22T20:00:39.450Z,35.80
2023-05-22T20:03:09.203Z,35.90
2023-05-22T20:05:37.524Z,36.00
2023-05-22T20:08:05.827Z,35.90
2023-05-22T20:10:33.887Z,36.00
2023-05-22T20:13:01.907Z,36.10
2023-05-22T20:15:30.441Z,36.10
2023-05-22T20:17:58.570Z,36.20
2023-05-22T20:20:27.955Z,36.20
2023-05-22T20:22:57.918Z,36.20
2023-05-22T20:25:26.164Z,36.30
2023-05-22T20:27:54.340Z,36.20
2023-05-22T20:30:22.394Z,36.20
2023-05-22T20:32:50.493Z,36.20
2023-05-22T20:35:20.081Z,36.50
2023-05-22T20:37:50.403Z,36.60
2023-05-22T20:40:18.507Z,36.80
2023-05-22T20:42:47.522Z,36.90
2023-05-22T20:45:16.384Z,37.10
2023-05-22T20:47:44.674Z,37.20
2023-05-22T20:50:12.881Z,37.40
2023-05-22T20:52:40.868Z,37.60
2023-05-22T20:55:11.159Z,37.70
2023-05-22T20:57:39.353Z,38.00
2023-05-22T21:00:13.752Z,37.90
2023-05-22T21:02:41.969Z,38.10
2023-05-22T21:05:11.097Z,38.00
2023-05-22T21:07:39.123Z,38.10
2023-05-22T21:10:10.478Z,38.30
2023-05-22T21:12:38.514Z,38.40
2023-05-22T21:15:08.451Z,38.60
2023-05-22T21:17:36.463Z,38.70
2023-05-22T21:20:05.694Z,38.80
2023-05-22T21:22:33.721Z,38.90
2023-05-22T21:25:01.778Z,38.80
2023-05-22T21:27:31.124Z,38.90
2023-05-22T21:29:59.144Z,39.00
2023-05-22T21:32:27.146Z,39.10
2023-05-22T21:34:55.172Z,39.10
2023-05-22T21:37:23.220Z,39.20
2023-05-22T21:39:51.565Z,39.40
2023-05-22T21:42:20.012Z,39.40
2023-05-22T21:44:49.323Z,39.40
2023-05-22T21:47:17.456Z,39.50
2023-05-22T21:49:45.594Z,39.50
2023-05-22T21:52:13.691Z,39.50
2023-05-22T21:54:41.713Z,39.60
2023-05-22T21:57:09.746Z,39.70
2023-05-22T21:59:38.121Z,39.70
2023-05-22T22:02:07.659Z,40.20
2023-05-22T22:04:35.827Z,39.70
2023-05-22T22:07:04.562Z,39.80
2023-05-22T22:09:32.606Z,39.90
2023-05-22T22:12:00.761Z,39.90
2023-05-22T22:14:28.776Z,40.00
2023-05-22T22:16:56.903Z,40.00
2023-05-22T22:19:26.343Z,40.30
2023-05-22T22:21:54.574Z,40.40
2023-05-22T22:24:22.585Z,40.50
2023-05-22T22:26:51.169Z,40.60
2023-05-22T22:29:19.679Z,41.20
2023-05-22T22:31:48.658Z,40.40
2023-05-22T22:34:17.901Z,40.90
2023-05-22T22:36:47.827Z,40.60
2023-05-22T22:39:17.176Z,40.70
2023-05-22T22:41:46.300Z,40.60
2023-05-22T22:44:14.848Z,41.10
2023-05-22T22:46:44.299Z,40.90
2023-05-22T22:49:12.843Z,40.80
2023-05-22T22:51:42.365Z,41.80
2023-05-22T22:54:15.598Z,41.10
2023-05-22T22:56:44.620Z,40.80
2023-05-22T22:59:13.410Z,41.10
2023-05-22T23:01:42.128Z,40.90
2023-05-22T23:04:11.535Z,41.40
2023-05-22T23:06:42.057Z,41.20
2023-05-22T23:09:12.911Z,41.70
2023-05-22T23:11:41.698Z,41.20
2023-05-22T23:14:10.946Z,41.50
2023-05-22T23:16:41.383Z,41.80
2023-05-22T23:19:11.918Z,42.00
2023-05-22T23:21:40.280Z,42.10
2023-05-22T23:24:10.054Z,42.30
2023-05-22T23:26:39.580Z,42.30
2023-05-22T23:29:08.246Z,42.50
2023-05-22T23:31:36.599Z,42.50
2023-05-22T23:34:04.759Z,42.50
2023-05-22T23:36:33.460Z,42.50
2023-05-22T23:39:01.591Z,42.60
2023-05-22T23:41:29.634Z,42.70
2023-05-22T23:43:59.320Z,42.80
2023-05-22T23:46:27.392Z,42.70
2023-05-22T23:48:55.626Z,42.90
2023-05-22T23:51:23.658Z,43.10
2023-05-22T23:53:52.143Z,43.10
2023-05-22T23:56:20.222Z,43.20
2023-05-22T23:58:48.284Z,43.30
